Latest Coastal Weather Observations for Broome

IDW60701

Issued at 8:33 pm WST Monday 23 January 2017 (issued every 10 minutes, with the page automatically refreshed every 10 minutes)

About coastal observations | Map of coastal stations | Coastal observations for WA | Marine services | Other Formats
Station Details ID: 003003 Name: BROOME AIRPORT Lat: -17.95 Lon: 122.24 Height: 7.42 m
Data from the previous 72 hours. | See also: Recent months at Broome
Date/Time
WST
Temp
°C
Wind Pressure Rain since
9am
mm
Weather Cloud Vis
km
Sea
Height
m
Swell
Dir  Spd
kts
Gust
kts
hPa Trend Height
m
Period
s
Dir
23/08:30pm 28.8 WNW 8 11 1007.3 - 0.0 - Partly cloudy 10 - - - -
23/08:00pm 28.9 WNW 8 12 1007.2 - 0.0 - - 10 - - - -
23/07:30pm 28.9 WNW 8 10 1007.0 - 0.0 - Partly cloudy 10 - - - -
23/07:00pm 29.0 WNW 8 11 1006.3 - 0.0 - - 10 - - - -
23/06:30pm 29.1 WNW 9 13 1006.0 - 0.0 - - 10 - - - -
23/06:00pm 29.5 WNW 11 15 1005.5 - 0.0 - - 10 - - - -
23/05:30pm 29.6 WNW 11 15 1005.3 - 0.0 - - 10 - - - -
23/05:00pm 30.3 WNW 12 17 1005.2 - 0.0 - - 10 - - - -
23/04:30pm 30.4 W 12 17 1005.0 - 0.0 - - 10 - - - -
23/04:00pm 30.8 W 12 16 1005.0 - 0.0 - - 10 - - - -
23/03:30pm 30.7 WNW 13 17 1005.3 - 0.0 - Mostly clear 10 - - - -
23/03:00pm 31.2 W 12 17 1005.5 - 0.0 - Mostly clear 10 - - - -
23/02:30pm 31.5 W 12 16 1005.9 - 0.0 - Mostly clear 10 - - - -
23/02:00pm 31.0 W 12 16 1006.3 - 0.0 - Mostly clear 10 - - - -
23/01:30pm 31.6 W 11 16 1006.6 - 0.0 - Mostly clear 10 - - - -
23/01:00pm 30.9 W 12 15 1006.8 - 0.0 - Mostly clear 10 - - - -
23/12:30pm 30.6 W 13 16 1006.9 - 0.0 - Partly cloudy 10 - - - -
23/12:00pm 31.0 W 11 16 1007.0 - 0.0 - Partly cloudy 10 - - - -
23/11:30am 30.9 W 12 17 1007.4 - 0.0 - Partly cloudy 10 - - - -
23/11:00am 30.8 W 11 16 1007.7 - 0.0 - Partly cloudy 10 - - - -
23/10:30am 30.5 W 13 17 1007.8 - 0.0 - Partly cloudy 10 - - - -
23/10:00am 29.8 W 13 17 1007.9 - 0.0 - Partly cloudy 10 - - - -
23/09:30am 30.1 WSW 12 15 1008.3 - 0.0 - Partly cloudy 10 - - - -
23/09:00am 29.6 WSW 11 14 1008.4 - 0.0 - Mostly clear 10 - - - -
23/08:30am 29.7 W 10 13 1008.4 - 0.0 - Partly cloudy 10 - - - -
23/08:00am 30.2 W 11 14 1008.3 - 0.0 - Partly cloudy 10 - - - -
23/07:30am 29.5 W 10 14 1008.0 - 0.0 - Partly cloudy 10 - - - -
23/07:00am 29.4 W 9 12 1007.8 - 0.0 - Partly cloudy 10 - - - -
23/06:30am 28.8 W 8 11 1007.6 - 0.0 - Partly cloudy 10 - - - -
23/06:00am 28.4 W 8 10 1007.2 - 0.0 - Mostly clear 10 - - - -
23/05:30am 28.2 W 7 11 1006.9 - 0.0 - Partly cloudy 10 - - - -
23/05:00am 28.2 W 8 11 1006.7 - 0.0 - Partly cloudy 10 - - - -
23/04:30am 28.1 WNW 8 12 1006.6 - 0.0 - Partly cloudy 10 - - - -
23/04:00am 28.1 W 9 13 1006.4 - 0.0 - Partly cloudy 10 - - - -
23/03:30am 28.1 W 10 13 1006.7 - 0.0 - - 10 - - - -
23/03:00am 28.2 W 10 13 1006.7 - 0.0 - Mostly clear 10 - - - -
23/02:30am 28.1 WNW 9 13 1006.9 - 0.0 - Partly cloudy 10 - - - -
23/02:00am 28.1 WNW 10 13 1007.1 - 0.0 - - 10 - - - -
23/01:30am 28.3 W 10 14 1007.2 - 0.0 - - 10 - - - -
23/01:00am 28.3 W 10 13 1007.5 - 0.0 - - 10 - - - -
23/12:30am 28.5 W 9 13 1007.7 - 0.0 - Partly cloudy 10 - - - -
23/12:00am 28.4 WNW 10 15 1007.8 - 0.0 - Mostly clear 10 - - - -
 
Date/Time
WST
Temp
°C
Wind Pressure Rain since
9am
mm
Weather Cloud Vis
km
Sea
Height
m
Swell
Dir  Spd
kts
Gust
kts
hPa Trend Height
m
Period
s
Dir
22/11:30pm 28.3 WNW 9 13 1008.1 - 0.0 - - 10 - - - -
22/11:00pm 28.6 W 10 15 1008.3 - 0.0 - Partly cloudy 10 - - - -
22/10:30pm 28.6 W 7 10 1008.4 - 0.0 - Partly cloudy 10 - - - -
22/10:00pm 28.6 W 9 13 1008.3 - 0.0 - - 10 - - - -
22/09:30pm 28.5 WNW 9 13 1008.3 - 0.0 - Partly cloudy 10 - - - -
22/09:00pm 28.6 W 9 13 1008.1 - 0.0 - - 10 - - - -
22/08:30pm 28.9 W 8 11 1008.2 - 0.0 - - 10 - - - -
22/08:00pm 28.9 W 8 11 1007.9 - 0.0 - - 10 - - - -
22/07:30pm 29.1 W 9 11 1007.8 - 0.0 - - 10 - - - -
22/07:00pm 29.2 W 9 14 1007.6 - 0.0 - - 10 - - - -
22/06:30pm 29.4 W 9 14 1007.1 - 0.0 - - 10 - - - -
22/06:00pm 29.9 W 11 14 1006.7 - 0.0 - - 10 - - - -
22/05:30pm 30.2 W 10 13 1006.6 - 0.0 - - 10 - - - -
22/05:00pm 30.5 W 11 16 1006.6 - 0.0 - - 10 - - - -
22/04:30pm 30.9 W 11 15 1006.5 - 0.0 - - 10 - - - -
22/04:00pm 31.2 W 10 15 1006.6 - 0.0 - - 10 - - - -
22/03:30pm 31.5 WSW 11 17 1006.7 - 0.0 - - 10 - - - -
22/03:00pm 31.6 W 12 17 1006.8 - 0.0 - - 10 - - - -
22/02:30pm 31.7 WSW 11 15 1007.3 - 0.0 - - 10 - - - -
22/02:00pm 31.1 W 12 17 1007.5 - 0.0 - - 10 - - - -
22/01:30pm 31.3 W 11 15 1008.0 - 0.0 - - 10 - - - -
22/01:00pm 31.4 W 11 16 1008.2 - 0.0 - - 10 - - - -
22/12:30pm 31.3 W 11 15 1008.6 - 0.0 - - 10 - - - -
22/12:00pm 31.7 W 11 16 1008.8 - 0.0 - - 10 - - - -
22/11:30am 31.0 W 11 15 1008.9 - 0.0 - - 10 - - - -
22/11:00am 30.9 W 11 15 1009.3 - 0.0 - - 10 - - - -
22/10:30am 31.0 W 10 15 1009.5 - 0.0 - Partly cloudy 10 - - - -
22/10:00am 31.2 WNW 11 14 1009.5 - 0.0 - Partly cloudy 10 - - - -
22/09:30am 30.3 W 11 16 1009.4 - 0.0 - Partly cloudy 10 - - - -
22/09:00am 30.8 W 11 15 1009.4 - 0.0 - Mostly clear 10 - - - -
22/08:30am 30.3 W 11 16 1009.5 - 0.0 - Partly cloudy 10 - - - -
22/08:00am 30.1 W 11 15 1009.4 - 0.0 - Partly cloudy 10 - - - -
22/07:30am 29.9 W 10 14 1009.4 - 0.0 - Partly cloudy 10 - - - -
22/07:00am 29.4 W 11 15 1009.4 - 0.0 - Partly cloudy 10 - - - -
22/06:30am 28.8 W 8 12 1009.3 - 0.0 - Partly cloudy 10 - - - -
22/06:00am 28.6 W 9 13 1008.9 - 0.0 - Partly cloudy 10 - - - -
22/05:30am 28.6 W 8 12 1008.7 - 0.0 - Partly cloudy 10 - - - -
22/05:00am 28.7 W 10 12 1008.3 - 0.0 - Partly cloudy 10 - - - -
22/04:30am 28.7 W 9 12 1008.0 - 0.0 - Partly cloudy 10 - - - -
22/04:00am 28.6 W 9 12 1007.9 - 0.0 - Partly cloudy 10 - - - -
22/03:30am 28.7 W 9 13 1008.0 - 0.0 - Partly cloudy 10 - - - -
22/03:00am 28.6 W 10 13 1007.8 - 0.0 - Mostly clear 10 - - - -
22/02:30am 28.7 W 9 12 1007.9 - 0.0 - Partly cloudy 10 - - - -
22/02:00am 28.6 W 9 12 1007.8 - 0.0 - - 10 - - - -
22/01:30am 28.6 WNW 8 11 1008.0 - 0.0 - Partly cloudy 10 - - - -
22/01:00am 28.7 WNW 9 13 1008.4 - 0.0 - - 10 - - - -
22/12:30am 28.9 W 9 12 1008.7 - 0.0 - Partly cloudy 10 - - - -
22/12:00am 28.9 W 10 13 1008.9 - 0.0 - Mostly clear 10 - - - -
 
Date/Time
WST
Temp
°C
Wind Pressure Rain since
9am
mm
Weather Cloud Vis
km
Sea
Height
m
Swell
Dir  Spd
kts
Gust
kts
hPa Trend Height
m
Period
s
Dir
21/11:30pm 29.0 W 8 13 1008.9 - 0.0 - Partly cloudy 10 - - - -
21/11:00pm 29.1 W 8 11 1008.9 - 0.0 - Partly cloudy 10 - - - -
21/10:30pm 29.1 W 9 11 1009.0 - 0.0 - - 10 - - - -
21/10:00pm 29.2 W 9 13 1009.1 - 0.0 - - 10 - - - -
21/09:30pm 29.3 W 9 12 1009.0 - 0.0 - Partly cloudy 10 - - - -
21/09:00pm 29.4 W 7 11 1008.6 - 0.0 - Cloudy 10 - - - -
21/08:30pm 29.2 W 7 11 1008.4 - 0.0 - - 10 - - - -
21/08:00pm 29.3 W 9 12 1008.2 - 0.0 - Partly cloudy 10 - - - -
21/07:30pm 29.4 WNW 9 11 1008.0 - 0.0 - Partly cloudy 10 - - - -
21/07:00pm 29.3 WNW 8 9 1007.8 - 0.0 - Partly cloudy 10 - - - -
21/06:30pm 29.5 WNW 8 10 1007.4 - 0.0 - Partly cloudy 10 - - - -
21/06:00pm 29.8 WNW 10 13 1006.9 - 0.0 - - 10 - - - -
21/05:30pm 30.3 WNW 10 13 1006.7 - 0.0 - Partly cloudy 10 - - - -
21/05:00pm 30.6 WNW 11 14 1006.4 - 0.0 - - 10 - - - -
21/04:30pm 30.9 WNW 12 15 1006.2 - 0.0 - - 10 - - - -
21/04:00pm 30.9 WNW 11 15 1006.2 - 0.0 - Partly cloudy 10 - - - -
21/03:30pm 31.3 WNW 12 16 1006.2 - 0.0 - Partly cloudy 10 - - - -
21/03:00pm 31.0 W 13 17 1006.2 - 0.0 - Mostly cloudy 10 - - - -
21/02:30pm 31.1 WNW 13 17 1006.6 - 0.0 - Partly cloudy 10 - - - -
21/02:00pm 31.6 W 12 17 1006.8 - 0.0 - Partly cloudy 10 - - - -
21/01:30pm 30.9 WNW 14 18 1007.0 - 0.0 - Partly cloudy 10 - - - -
21/01:00pm 31.7 WNW 13 18 1007.1 - 0.0 - Partly cloudy 10 - - - -
21/12:30pm 31.2 W 13 16 1007.2 - 0.0 - Partly cloudy 10 - - - -
21/12:00pm 31.1 WNW 13 19 1007.4 - 0.0 - Mostly clear 10 - - - -
21/11:30am 31.2 W 13 19 1007.6 - 0.0 - Partly cloudy 10 - - - -
21/11:00am 30.9 WNW 13 17 1007.8 - 0.0 - Partly cloudy 10 - - - -
21/10:30am 30.7 NW 14 18 1007.9 - 0.0 - Partly cloudy 10 - - - -
21/10:00am 31.2 WNW 13 18 1007.9 - 0.0 - Partly cloudy 10 - - - -
21/09:30am 30.8 NW 12 19 1008.0 - 0.0 - Partly cloudy 10 - - - -
21/09:00am 30.9 NW 12 17 1007.8 - 0.0 - Mostly clear 10 - - - -
21/08:30am 30.2 NW 12 18 1007.9 - 0.0 - Partly cloudy 10 - - - -
21/08:00am 29.5 NW 11 16 1007.8 - 0.0 - Partly cloudy 10 - - - -
21/07:30am 29.5 NW 11 15 1007.4 - 0.0 - Partly cloudy 10 - - - -
21/07:00am 29.2 NW 11 16 1007.3 - 0.0 - Partly cloudy 10 - - - -
21/06:30am 28.9 WNW 11 15 1007.2 - 0.0 - Partly cloudy 10 - - - -
21/06:00am 28.7 W 9 13 1006.8 - 0.0 - Partly cloudy 10 - - - -
21/05:30am 28.8 W 12 17 1006.7 - 0.0 - Partly cloudy 10 - - - -
21/05:00am 28.3 WNW 10 14 1006.3 - 0.0 - Partly cloudy 10 - - - -
21/04:30am 27.8 WNW 11 17 1006.1 - 0.0 - Partly cloudy 10 - - - -
21/04:00am 28.3 WNW 10 16 1006.1 - 0.0 - Partly cloudy 10 - - - -
21/03:30am 28.6 W 9 15 1006.2 - 0.0 - Cloudy 10 - - - -
21/03:00am 28.5 W 10 15 1006.0 - 0.0 - Cloudy 10 - - - -
21/02:30am 28.8 W 11 18 1006.1 - 0.0 - Cloudy 10 - - - -
21/02:00am 29.0 W 12 16 1006.1 - 0.0 - Partly cloudy 10 - - - -
21/01:30am 28.8 W 12 17 1006.1 - 0.0 - Partly cloudy 10 - - - -
21/01:00am 28.8 W 11 17 1006.1 - 0.0 - Cloudy 10 - - - -
21/12:30am 28.9 W 13 19 1006.4 - 0.0 - Partly cloudy 10 - - - -
21/12:00am 28.8 WNW 12 17 1006.4 - 0.0 - Partly cloudy 10 - - - -
 
Date/Time
WST
Temp
°C
Wind Pressure Rain since
9am
mm
Weather Cloud Vis
km
Sea
Height
m
Swell
Dir  Spd
kts
Gust
kts
hPa Trend Height
m
Period
s
Dir
20/11:30pm 28.8 W 15 21 1006.6 - 0.0 - Partly cloudy 10 - - - -
20/11:00pm 28.8 W 13 18 1006.9 - 0.0 - Partly cloudy 10 - - - -
20/10:30pm 28.8 W 12 16 1007.0 - 0.0 - Partly cloudy 10 - - - -
20/10:00pm 28.9 W 12 16 1007.0 - 0.0 - Partly cloudy 10 - - - -
20/09:30pm 29.0 W 13 19 1006.8 - 0.0 - Partly cloudy 10 - - - -
20/09:00pm 29.1 W 12 17 1006.3 - 0.0 - Mostly cloudy 10 - - - -

Other Formats:

Comma delimited format used in spreadsheet applications
http://www.bom.gov.au/fwo/IDW60701/IDW60701.94203.axf

JavaScript Object Notation format (JSON) in row-major order
http://www.bom.gov.au/fwo/IDW60701/IDW60701.94203.json